createdAt,value
2017-03-23T00:00:15.022Z,2.82
2017-03-23T00:01:15.626Z,2.75
2017-03-23T00:02:16.231Z,2.74
2017-03-23T00:03:16.835Z,2.57
2017-03-23T00:04:17.444Z,2.65
2017-03-23T00:05:18.047Z,2.56
2017-03-23T00:06:18.653Z,2.69
2017-03-23T00:07:19.264Z,2.57
2017-03-23T00:08:19.865Z,2.54
2017-03-23T00:09:20.469Z,2.61
2017-03-23T00:10:21.081Z,2.50
2017-03-23T00:11:21.691Z,2.54
2017-03-23T00:12:22.294Z,2.57
2017-03-23T00:13:22.901Z,2.56
2017-03-23T00:14:23.503Z,2.50
2017-03-23T00:15:24.108Z,2.54
2017-03-23T00:16:24.716Z,2.50
2017-03-23T00:17:25.353Z,2.47
2017-03-23T00:18:25.960Z,2.53
2017-03-23T00:19:26.562Z,2.50
2017-03-23T00:20:27.168Z,2.47
2017-03-23T00:21:27.775Z,2.50
2017-03-23T00:22:28.385Z,2.42
2017-03-23T00:23:28.989Z,2.49
2017-03-23T00:24:29.631Z,2.50
2017-03-23T00:25:30.234Z,2.56
2017-03-23T00:26:30.840Z,2.50
2017-03-23T00:27:31.453Z,2.56
2017-03-23T00:28:32.054Z,2.56
2017-03-23T00:29:32.658Z,2.56
2017-03-23T00:30:33.263Z,2.60
2017-03-23T00:31:33.868Z,2.51
2017-03-23T00:32:34.470Z,2.47
2017-03-23T00:33:35.074Z,2.53
2017-03-23T00:34:35.679Z,2.47
2017-03-23T00:35:36.283Z,2.57
2017-03-23T00:36:36.886Z,2.46
2017-03-23T00:37:37.491Z,2.54
2017-03-23T00:38:38.095Z,2.53
2017-03-23T00:39:38.701Z,2.56
2017-03-23T00:40:39.310Z,2.53
2017-03-23T00:41:39.913Z,2.49
2017-03-23T00:42:40.521Z,2.53
2017-03-23T00:43:41.123Z,2.46
2017-03-23T00:44:41.733Z,2.47
2017-03-23T00:45:42.333Z,2.46
2017-03-23T00:46:42.938Z,2.44
2017-03-23T00:47:43.541Z,2.53
2017-03-23T00:48:44.152Z,2.50
2017-03-23T00:49:44.749Z,2.49
2017-03-23T00:50:45.358Z,2.43
2017-03-23T00:51:45.957Z,2.44
2017-03-23T00:52:46.566Z,2.49
2017-03-23T00:53:47.168Z,2.51
2017-03-23T00:54:47.770Z,2.54
2017-03-23T00:55:48.374Z,2.51
2017-03-23T00:56:48.977Z,2.54
2017-03-23T00:57:49.590Z,2.64
2017-03-23T00:58:50.189Z,2.61
2017-03-23T00:59:50.795Z,2.68
2017-03-23T01:00:51.402Z,2.56
2017-03-23T01:01:52.007Z,2.80
2017-03-23T01:02:52.618Z,2.83
2017-03-23T01:03:53.221Z,2.74
2017-03-23T01:04:53.834Z,2.75
2017-03-23T01:05:54.430Z,2.74
2017-03-23T01:06:55.035Z,2.80
2017-03-23T01:07:55.643Z,2.83
2017-03-23T01:08:56.246Z,2.86
2017-03-23T01:09:56.855Z,2.79
2017-03-23T01:10:57.507Z,2.79
2017-03-23T01:11:58.111Z,2.77
2017-03-23T01:12:58.718Z,2.75
2017-03-23T01:13:59.321Z,2.79
2017-03-23T01:14:59.923Z,2.80
2017-03-23T01:16:00.529Z,2.72
2017-03-23T01:17:01.183Z,2.77
2017-03-23T01:18:01.788Z,2.75
2017-03-23T01:19:02.401Z,2.79
2017-03-23T01:20:03.004Z,2.79
2017-03-23T01:21:03.608Z,2.77
2017-03-23T01:22:04.212Z,2.86
2017-03-23T01:23:04.816Z,2.83
2017-03-23T01:24:05.426Z,2.95
2017-03-23T01:25:06.027Z,2.83
2017-03-23T01:26:06.637Z,2.92
2017-03-23T01:27:07.238Z,2.98
2017-03-23T01:28:07.847Z,2.85
2017-03-23T01:29:08.451Z,2.97
2017-03-23T01:30:09.055Z,2.93
2017-03-23T01:31:09.665Z,2.95
2017-03-23T01:32:10.299Z,2.95
2017-03-23T01:33:10.909Z,2.90
2017-03-23T01:34:11.511Z,2.86
2017-03-23T01:35:12.116Z,2.97
2017-03-23T01:36:12.720Z,2.87
2017-03-23T01:37:13.324Z,2.87
2017-03-23T01:38:13.928Z,2.77
2017-03-23T01:39:14.531Z,2.77
2017-03-23T01:40:15.135Z,2.74
2017-03-23T01:41:15.744Z,2.71
2017-03-23T01:42:16.346Z,2.79
2017-03-23T01:43:16.949Z,2.80
2017-03-23T01:44:17.553Z,2.80
2017-03-23T01:45:18.156Z,2.79
2017-03-23T01:46:18.761Z,2.75
2017-03-23T01:47:19.365Z,2.77
2017-03-23T01:48:19.970Z,2.71
2017-03-23T01:49:20.578Z,2.74
2017-03-23T01:50:21.180Z,2.69
2017-03-23T01:51:21.785Z,2.74
2017-03-23T01:52:22.388Z,2.69
2017-03-23T01:53:22.991Z,2.82
2017-03-23T01:54:23.596Z,2.71
2017-03-23T01:55:24.201Z,2.77
2017-03-23T01:56:24.839Z,2.75
2017-03-23T01:57:25.408Z,2.67
2017-03-23T01:58:26.012Z,2.79
2017-03-23T01:59:26.617Z,2.69
2017-03-23T02:00:27.221Z,2.71
2017-03-23T02:01:27.826Z,2.75
2017-03-23T02:02:28.433Z,2.75
2017-03-23T02:03:29.038Z,2.72
2017-03-23T02:04:29.644Z,2.64
2017-03-23T02:05:30.255Z,2.71
2017-03-23T02:06:30.862Z,2.79
2017-03-23T02:07:31.469Z,2.71
2017-03-23T02:08:32.071Z,2.69
2017-03-23T02:09:32.673Z,2.69
2017-03-23T02:10:33.276Z,2.68
2017-03-23T02:11:33.881Z,2.64
2017-03-23T02:12:34.536Z,2.60
2017-03-23T02:13:35.141Z,2.57
2017-03-23T02:14:35.746Z,2.60
2017-03-23T02:15:36.355Z,2.56
2017-03-23T02:16:36.962Z,2.54
2017-03-23T02:17:37.563Z,2.61
2017-03-23T02:18:38.167Z,2.67
2017-03-23T02:19:38.771Z,2.68
2017-03-23T02:20:39.376Z,2.72
2017-03-23T02:21:39.978Z,2.75
2017-03-23T02:22:40.582Z,2.77
2017-03-23T02:23:41.266Z,2.79
2017-03-23T02:24:41.871Z,2.75
2017-03-23T02:25:42.474Z,2.62
2017-03-23T02:26:43.077Z,2.75
2017-03-23T02:27:43.681Z,2.79
2017-03-23T02:28:44.284Z,2.77
2017-03-23T02:29:44.889Z,2.80
2017-03-23T02:30:45.499Z,2.79
2017-03-23T02:31:46.100Z,2.79
2017-03-23T02:32:46.704Z,2.77
2017-03-23T02:33:47.307Z,2.79
2017-03-23T02:34:47.917Z,2.86
2017-03-23T02:35:48.518Z,2.85
2017-03-23T02:36:49.128Z,2.87
2017-03-23T02:37:49.730Z,2.90
2017-03-23T02:38:50.336Z,2.97
2017-03-23T02:39:50.941Z,2.95
2017-03-23T02:40:51.548Z,3.01
2017-03-23T02:41:52.155Z,3.03
2017-03-23T02:42:52.765Z,2.97
2017-03-23T02:43:53.366Z,3.07
2017-03-23T02:44:53.977Z,3.10
2017-03-23T02:45:54.577Z,3.11
2017-03-23T02:46:55.184Z,3.22
2017-03-23T02:47:55.791Z,3.16
2017-03-23T02:48:56.394Z,3.16
2017-03-23T02:49:57.000Z,3.10
2017-03-23T02:50:57.635Z,3.16
2017-03-23T02:51:58.243Z,3.25
2017-03-23T02:52:58.845Z,3.11
2017-03-23T02:53:59.455Z,3.21
2017-03-23T02:55:00.058Z,3.16
2017-03-23T02:56:00.667Z,3.13
2017-03-23T02:57:01.320Z,3.16
2017-03-23T02:58:01.929Z,3.25
2017-03-23T02:59:02.564Z,3.31
2017-03-23T03:00:03.168Z,3.22
2017-03-23T03:01:03.773Z,3.13
2017-03-23T03:02:04.378Z,3.18
2017-03-23T03:03:04.982Z,3.21
2017-03-23T03:04:05.586Z,3.13
2017-03-23T03:05:06.191Z,3.10
2017-03-23T03:06:06.800Z,2.97
2017-03-23T03:07:07.401Z,3.07
2017-03-23T03:08:08.011Z,3.08
2017-03-23T03:09:08.620Z,3.08
2017-03-23T03:10:09.219Z,3.05
2017-03-23T03:11:09.829Z,3.11
2017-03-23T03:12:10.436Z,3.11
2017-03-23T03:13:11.040Z,3.11
2017-03-23T03:14:11.647Z,3.13
2017-03-23T03:15:12.254Z,3.19
2017-03-23T03:16:12.857Z,3.18
2017-03-23T03:17:13.463Z,3.13
2017-03-23T03:18:14.068Z,3.13
2017-03-23T03:19:14.677Z,3.18
2017-03-23T03:20:15.278Z,3.16
2017-03-23T03:21:15.883Z,3.18
2017-03-23T03:22:16.518Z,3.18
2017-03-23T03:23:17.123Z,3.18
2017-03-23T03:24:17.729Z,3.16
2017-03-23T03:25:18.366Z,3.19
2017-03-23T03:26:18.973Z,3.19
2017-03-23T03:27:19.579Z,3.19
2017-03-23T03:28:20.187Z,3.19
2017-03-23T03:29:20.791Z,3.19
2017-03-23T03:30:21.400Z,3.18
2017-03-23T03:31:22.005Z,3.19
2017-03-23T03:32:22.616Z,3.25
2017-03-23T03:33:23.213Z,3.22
2017-03-23T03:34:23.819Z,3.21
2017-03-23T03:35:24.421Z,3.21
2017-03-23T03:36:25.034Z,3.23
2017-03-23T03:37:25.641Z,3.25
2017-03-23T03:38:26.244Z,3.19
2017-03-23T03:39:26.850Z,3.23
2017-03-23T03:40:27.454Z,3.28
2017-03-23T03:41:28.064Z,3.23
2017-03-23T03:42:28.667Z,3.22
2017-03-23T03:43:29.271Z,3.26
2017-03-23T03:44:29.875Z,3.34
2017-03-23T03:45:30.511Z,3.23
2017-03-23T03:46:31.086Z,3.21
2017-03-23T03:47:31.720Z,3.29
2017-03-23T03:48:32.329Z,3.36
2017-03-23T03:49:32.938Z,3.36
2017-03-23T03:50:33.540Z,3.26
2017-03-23T03:51:34.145Z,3.28
2017-03-23T03:52:34.749Z,3.26
2017-03-23T03:53:35.354Z,3.28
2017-03-23T03:54:35.971Z,3.28
2017-03-23T03:55:36.571Z,3.29
2017-03-23T03:56:37.175Z,3.32
2017-03-23T03:57:37.778Z,3.21
2017-03-23T03:58:38.381Z,3.34
2017-03-23T03:59:38.990Z,3.28
2017-03-23T04:00:39.594Z,3.28
2017-03-23T04:01:40.201Z,3.28
2017-03-23T04:02:40.807Z,3.28
2017-03-23T04:03:41.413Z,3.23
2017-03-23T04:04:42.021Z,3.22
2017-03-23T04:05:42.624Z,3.26
2017-03-23T04:06:43.236Z,3.32
2017-03-23T04:07:43.836Z,3.19
2017-03-23T04:08:44.443Z,3.31
2017-03-23T04:09:45.045Z,3.22
2017-03-23T04:10:45.651Z,3.22
2017-03-23T04:11:46.256Z,3.18
2017-03-23T04:12:46.858Z,3.11
2017-03-23T04:13:47.463Z,3.22
2017-03-23T04:14:48.068Z,3.16
2017-03-23T04:15:48.671Z,3.21
2017-03-23T04:16:49.276Z,3.22
2017-03-23T04:17:49.879Z,3.13
2017-03-23T04:18:50.489Z,3.14
2017-03-23T04:19:51.091Z,3.16
2017-03-23T04:20:51.702Z,3.14
2017-03-23T04:21:52.304Z,3.26
2017-03-23T04:22:52.909Z,3.23
2017-03-23T04:23:53.543Z,3.26
2017-03-23T04:24:54.147Z,3.21
2017-03-23T04:25:54.753Z,3.10
2017-03-23T04:26:55.356Z,3.19
2017-03-23T04:27:55.993Z,3.21
2017-03-23T04:28:56.598Z,3.14
2017-03-23T04:29:57.211Z,3.18
2017-03-23T04:30:57.817Z,3.16
2017-03-23T04:31:58.419Z,3.16
2017-03-23T04:32:59.024Z,3.11
2017-03-23T04:33:59.661Z,3.18
2017-03-23T04:35:00.268Z,3.19
2017-03-23T04:36:00.874Z,3.25
2017-03-23T04:37:01.478Z,3.22
2017-03-23T04:38:02.083Z,3.11
2017-03-23T04:39:02.687Z,3.10
2017-03-23T04:40:03.292Z,3.10
2017-03-23T04:41:03.896Z,3.16
2017-03-23T04:42:04.500Z,3.08
2017-03-23T04:43:05.109Z,3.14
2017-03-23T04:44:05.713Z,3.10
2017-03-23T04:45:06.320Z,3.04
2017-03-23T04:46:06.929Z,3.07
2017-03-23T04:47:07.535Z,3.08
2017-03-23T04:48:08.142Z,3.10
2017-03-23T04:49:08.744Z,3.11
2017-03-23T04:50:09.394Z,3.11
2017-03-23T04:51:09.959Z,3.10
2017-03-23T04:52:10.594Z,3.11
2017-03-23T04:53:11.197Z,3.07
2017-03-23T04:54:11.802Z,3.13
2017-03-23T04:55:12.411Z,3.10
2017-03-23T04:56:13.011Z,3.10
2017-03-23T04:57:13.621Z,3.07
2017-03-23T04:58:14.222Z,2.98
2017-03-23T04:59:14.831Z,2.93
2017-03-23T05:00:15.434Z,2.95
2017-03-23T05:01:16.039Z,3.08
2017-03-23T05:02:16.643Z,3.00
2017-03-23T05:03:17.281Z,3.00
2017-03-23T05:04:17.881Z,2.97
2017-03-23T05:05:18.487Z,2.95
2017-03-23T05:06:19.091Z,3.00
2017-03-23T05:07:19.696Z,3.07
2017-03-23T05:08:20.300Z,3.04
2017-03-23T05:09:20.906Z,3.08
2017-03-23T05:10:21.515Z,3.08
2017-03-23T05:11:22.117Z,3.16
2017-03-23T05:12:22.831Z,3.16
2017-03-23T05:13:23.435Z,3.21
2017-03-23T05:14:24.041Z,3.16
2017-03-23T05:15:24.646Z,3.22
2017-03-23T05:16:25.252Z,3.16
2017-03-23T05:17:25.876Z,3.19
2017-03-23T05:18:26.500Z,3.19
2017-03-23T05:19:27.112Z,3.18
2017-03-23T05:20:27.714Z,3.11
2017-03-23T05:21:28.319Z,3.13
2017-03-23T05:22:28.926Z,3.16
2017-03-23T05:23:29.531Z,3.23
2017-03-23T05:24:30.137Z,3.22
2017-03-23T05:25:30.743Z,3.16
2017-03-23T05:26:31.353Z,3.11
2017-03-23T05:27:31.960Z,3.18
2017-03-23T05:28:32.568Z,3.19
2017-03-23T05:29:33.174Z,3.19
2017-03-23T05:30:33.783Z,3.19
2017-03-23T05:31:34.390Z,3.26
2017-03-23T05:32:34.996Z,3.28
2017-03-23T05:33:35.602Z,3.16
2017-03-23T05:34:36.209Z,3.19
2017-03-23T05:35:36.822Z,3.31
2017-03-23T05:36:37.428Z,3.26
2017-03-23T05:37:38.039Z,3.37
2017-03-23T05:38:38.644Z,3.34
2017-03-23T05:39:39.255Z,3.37
2017-03-23T05:40:39.864Z,3.37
2017-03-23T05:41:40.473Z,3.42
2017-03-23T05:42:41.111Z,3.36
2017-03-23T05:43:41.720Z,3.48
2017-03-23T05:44:42.332Z,3.47
2017-03-23T05:45:42.934Z,3.44
2017-03-23T05:46:43.549Z,3.45
2017-03-23T05:47:44.154Z,3.47
2017-03-23T05:48:44.762Z,3.51
2017-03-23T05:49:45.370Z,3.41
2017-03-23T05:50:45.977Z,3.45
2017-03-23T05:51:46.585Z,3.48
2017-03-23T05:52:47.199Z,3.44
2017-03-23T05:53:47.805Z,3.37
2017-03-23T05:54:48.417Z,3.34
2017-03-23T05:55:49.029Z,3.44
2017-03-23T05:56:49.633Z,3.42
2017-03-23T05:57:50.242Z,3.41
2017-03-23T05:58:50.850Z,3.45
2017-03-23T05:59:51.462Z,3.41
2017-03-23T06:00:52.101Z,3.42
2017-03-23T06:01:52.711Z,3.37
2017-03-23T06:02:53.320Z,3.41
2017-03-23T06:03:53.936Z,3.40
2017-03-23T06:04:54.539Z,3.45
2017-03-23T06:05:55.147Z,3.41
2017-03-23T06:06:55.756Z,3.48
2017-03-23T06:07:56.363Z,3.41
2017-03-23T06:08:56.972Z,3.53
2017-03-23T06:09:57.580Z,3.47
2017-03-23T06:10:58.188Z,3.45
2017-03-23T06:11:58.799Z,3.48
2017-03-23T06:12:59.413Z,3.41
2017-03-23T06:14:00.020Z,3.48
2017-03-23T06:15:00.627Z,3.55
2017-03-23T06:16:01.235Z,3.51
2017-03-23T06:17:01.844Z,3.55
2017-03-23T06:18:02.453Z,3.59
2017-03-23T06:19:03.061Z,3.45
2017-03-23T06:20:03.672Z,3.62
2017-03-23T06:21:04.282Z,3.60
2017-03-23T06:22:04.896Z,3.63
2017-03-23T06:23:05.500Z,3.62
2017-03-23T06:24:06.114Z,3.70
2017-03-23T06:25:06.719Z,3.70
2017-03-23T06:26:07.326Z,3.63
2017-03-23T06:27:07.963Z,3.62
2017-03-23T06:28:08.574Z,3.56
2017-03-23T06:29:09.188Z,3.63
2017-03-23T06:30:09.825Z,3.66
2017-03-23T06:31:10.433Z,3.66
2017-03-23T06:32:11.048Z,3.70
2017-03-23T06:33:11.657Z,3.84
2017-03-23T06:34:12.269Z,3.94
2017-03-23T06:35:12.877Z,4.08
2017-03-23T06:36:13.489Z,4.16
2017-03-23T06:37:14.097Z,4.22
2017-03-23T06:38:14.714Z,4.44
2017-03-23T06:39:15.327Z,4.77
2017-03-23T06:40:15.936Z,5.14
2017-03-23T06:41:16.546Z,5.32
2017-03-23T06:42:17.163Z,5.38
2017-03-23T06:43:17.776Z,5.36
2017-03-23T06:44:18.390Z,5.39
2017-03-23T06:45:19.004Z,5.35
2017-03-23T06:46:19.612Z,5.18
2017-03-23T06:47:20.254Z,5.17
2017-03-23T06:48:20.865Z,4.94
2017-03-23T06:49:21.481Z,4.92
2017-03-23T06:50:22.097Z,4.80
2017-03-23T06:51:22.733Z,4.71
2017-03-23T06:52:23.343Z,4.63
2017-03-23T06:53:23.954Z,4.58
2017-03-23T06:54:24.592Z,4.55
2017-03-23T06:55:25.204Z,4.48
2017-03-23T06:56:25.815Z,4.56
2017-03-23T06:57:26.424Z,4.58
2017-03-23T06:58:27.037Z,4.78
2017-03-23T06:59:27.656Z,4.96
2017-03-23T07:00:28.267Z,5.08
2017-03-23T07:01:28.921Z,5.48
2017-03-23T07:02:29.489Z,5.59
2017-03-23T07:03:30.105Z,5.72
2017-03-23T07:04:30.714Z,5.76
2017-03-23T07:05:31.333Z,5.79
2017-03-23T07:06:31.940Z,5.62
2017-03-23T07:07:32.554Z,5.69
2017-03-23T07:08:33.168Z,5.57
2017-03-23T07:09:33.776Z,5.50
2017-03-23T07:10:34.387Z,5.32
2017-03-23T07:11:35.003Z,5.30
2017-03-23T07:12:35.613Z,5.33
2017-03-23T07:13:36.231Z,5.29
2017-03-23T07:14:36.839Z,5.30
2017-03-23T07:15:37.480Z,5.41
2017-03-23T07:16:38.092Z,5.46
2017-03-23T07:17:38.708Z,5.36
2017-03-23T07:18:39.318Z,5.36
2017-03-23T07:19:39.932Z,5.39
2017-03-23T07:20:40.543Z,5.33
2017-03-23T07:21:41.156Z,5.30
2017-03-23T07:22:41.766Z,5.32
2017-03-23T07:23:42.377Z,5.26
2017-03-23T07:24:42.993Z,5.14
2017-03-23T07:25:43.605Z,5.14
2017-03-23T07:26:44.220Z,5.18
2017-03-23T07:27:44.827Z,5.00
2017-03-23T07:28:45.444Z,4.99
2017-03-23T07:29:46.053Z,4.94
2017-03-23T07:30:46.663Z,4.94
2017-03-23T07:31:47.272Z,4.92
2017-03-23T07:32:47.884Z,4.97
2017-03-23T07:33:48.497Z,5.00
2017-03-23T07:34:49.108Z,5.00
2017-03-23T07:35:49.725Z,4.93
2017-03-23T07:36:50.339Z,4.93
2017-03-23T07:37:50.948Z,4.94
2017-03-23T07:38:51.559Z,4.97
2017-03-23T07:39:52.172Z,4.96
2017-03-23T07:40:52.784Z,4.96
2017-03-23T07:41:53.396Z,5.00
2017-03-23T07:42:54.016Z,5.14
2017-03-23T07:43:54.628Z,5.21
2017-03-23T07:44:55.237Z,5.25
2017-03-23T07:45:55.850Z,5.29
2017-03-23T07:46:56.461Z,5.36
2017-03-23T07:47:57.073Z,5.29
2017-03-23T07:48:57.686Z,5.25
2017-03-23T07:49:58.327Z,5.25
2017-03-23T07:50:58.941Z,5.21
2017-03-23T07:51:59.548Z,5.25
2017-03-23T07:53:00.160Z,5.29
2017-03-23T07:54:00.772Z,5.30
2017-03-23T07:55:01.386Z,5.20
2017-03-23T07:56:02.003Z,5.11
2017-03-23T07:57:02.613Z,5.04
2017-03-23T07:58:03.229Z,5.00
2017-03-23T07:59:03.876Z,5.07
2017-03-23T08:00:04.482Z,5.02
2017-03-23T08:01:05.091Z,5.04
2017-03-23T08:02:05.709Z,4.94
2017-03-23T08:03:06.318Z,4.97
2017-03-23T08:04:06.932Z,5.00
2017-03-23T08:05:07.538Z,5.08
2017-03-23T08:06:08.154Z,5.08
2017-03-23T08:07:08.762Z,5.00
2017-03-23T08:08:09.371Z,5.00
2017-03-23T08:09:09.983Z,5.02
2017-03-23T08:10:10.601Z,5.05
2017-03-23T08:11:11.208Z,5.07
2017-03-23T08:12:11.870Z,5.10
2017-03-23T08:13:12.481Z,5.14
2017-03-23T08:14:13.099Z,5.11
2017-03-23T08:15:13.709Z,5.12
2017-03-23T08:16:14.319Z,5.28
2017-03-23T08:17:14.934Z,5.35
2017-03-23T08:18:15.576Z,5.47
2017-03-23T08:19:16.153Z,5.66
2017-03-23T08:20:16.764Z,6.01
2017-03-23T08:21:17.378Z,6.26
2017-03-23T08:22:17.991Z,6.28
2017-03-23T08:23:18.603Z,6.35
2017-03-23T08:24:19.216Z,6.38
2017-03-23T08:25:19.828Z,6.31
2017-03-23T08:26:20.438Z,6.35
2017-03-23T08:27:21.052Z,6.30
2017-03-23T08:28:21.664Z,6.33
2017-03-23T08:29:22.283Z,6.36
2017-03-23T08:30:22.893Z,6.41
2017-03-23T08:31:23.506Z,6.51
2017-03-23T08:32:24.123Z,6.60
2017-03-23T08:33:24.732Z,6.56
2017-03-23T08:34:25.351Z,6.54
2017-03-23T08:35:25.967Z,6.46
2017-03-23T08:36:26.576Z,6.52
2017-03-23T08:37:27.207Z,6.51
2017-03-23T08:38:27.812Z,6.48
2017-03-23T08:39:28.455Z,6.57
2017-03-23T08:40:29.067Z,6.64
2017-03-23T08:41:29.681Z,6.81
2017-03-23T08:42:30.295Z,6.99
2017-03-23T08:43:30.908Z,7.15
2017-03-23T08:44:31.522Z,7.32
2017-03-23T08:45:32.163Z,7.43
2017-03-23T08:46:32.783Z,7.48
2017-03-23T08:47:33.401Z,7.58
2017-03-23T08:48:34.041Z,7.42
2017-03-23T08:49:34.687Z,7.45
2017-03-23T08:50:35.296Z,7.47
2017-03-23T08:51:35.915Z,7.39
2017-03-23T08:52:36.527Z,7.42
2017-03-23T08:53:37.143Z,7.43
2017-03-23T08:54:37.757Z,7.60
2017-03-23T08:55:38.371Z,7.76
2017-03-23T08:56:38.984Z,7.79
2017-03-23T08:57:39.597Z,7.97
2017-03-23T08:58:40.210Z,8.00
2017-03-23T08:59:40.827Z,8.05
2017-03-23T09:00:41.440Z,8.03
2017-03-23T09:01:42.055Z,8.16
2017-03-23T09:02:42.668Z,8.33
2017-03-23T09:03:43.287Z,8.55
2017-03-23T09:04:43.898Z,8.64
2017-03-23T09:05:44.513Z,8.74
2017-03-23T09:06:45.131Z,8.82
2017-03-23T09:07:45.743Z,8.97
2017-03-23T09:08:46.364Z,9.06
2017-03-23T09:09:46.976Z,9.04
2017-03-23T09:10:47.591Z,9.04
2017-03-23T09:11:48.211Z,9.14
2017-03-23T09:12:48.838Z,9.10
2017-03-23T09:13:49.439Z,9.04
2017-03-23T09:14:50.054Z,9.03
2017-03-23T09:15:50.674Z,8.88
2017-03-23T09:16:51.286Z,8.82
2017-03-23T09:17:51.904Z,8.71
2017-03-23T09:18:52.519Z,8.67
2017-03-23T09:19:53.137Z,8.60
2017-03-23T09:20:53.749Z,8.64
2017-03-23T09:21:54.367Z,8.52
2017-03-23T09:22:54.984Z,8.51
2017-03-23T09:23:55.602Z,8.56
2017-03-23T09:24:56.220Z,8.51
2017-03-23T09:25:56.832Z,8.44
2017-03-23T09:26:57.452Z,8.46
2017-03-23T09:27:58.063Z,8.41
2017-03-23T09:28:58.686Z,8.51
2017-03-23T09:29:59.349Z,8.55
2017-03-23T09:30:59.965Z,8.60
2017-03-23T09:32:00.585Z,8.56
2017-03-23T09:33:01.206Z,8.67
2017-03-23T09:34:01.816Z,8.78
2017-03-23T09:35:02.431Z,8.71
2017-03-23T09:36:03.044Z,8.88
2017-03-23T09:37:03.659Z,8.92
2017-03-23T09:38:04.277Z,8.85
2017-03-23T09:39:04.948Z,8.89
2017-03-23T09:40:05.554Z,8.89
2017-03-23T09:41:06.169Z,8.84
2017-03-23T09:42:06.789Z,8.78
2017-03-23T09:43:07.406Z,8.61
2017-03-23T09:44:08.016Z,8.70
2017-03-23T09:45:08.632Z,8.69
2017-03-23T09:46:09.299Z,8.81
2017-03-23T09:47:09.944Z,8.74
2017-03-23T09:48:10.559Z,8.84
2017-03-23T09:49:11.180Z,8.84
2017-03-23T09:50:11.797Z,8.84
2017-03-23T09:51:12.415Z,8.84
2017-03-23T09:52:13.027Z,8.85
2017-03-23T09:53:13.643Z,8.89
2017-03-23T09:54:14.257Z,8.87
2017-03-23T09:55:14.871Z,8.91
2017-03-23T09:56:15.491Z,8.70
2017-03-23T09:57:16.105Z,8.70
2017-03-23T09:58:16.727Z,8.56
2017-03-23T09:59:17.343Z,8.51
2017-03-23T10:00:17.956Z,8.38
2017-03-23T10:01:18.570Z,8.41
2017-03-23T10:02:19.185Z,8.36
2017-03-23T10:03:19.807Z,8.31
2017-03-23T10:04:20.502Z,8.33
2017-03-23T10:05:21.122Z,8.41
2017-03-23T10:06:21.734Z,8.36
2017-03-23T10:07:22.353Z,8.46
2017-03-23T10:08:22.966Z,8.51
2017-03-23T10:09:23.582Z,8.55
2017-03-23T10:10:24.201Z,8.61
2017-03-23T10:11:24.815Z,8.60
2017-03-23T10:12:25.434Z,8.61
2017-03-23T10:13:26.045Z,8.71
2017-03-23T10:14:26.666Z,8.78
2017-03-23T10:15:27.327Z,8.85
2017-03-23T10:16:27.953Z,8.94
2017-03-23T10:17:28.558Z,8.92
2017-03-23T10:18:29.173Z,9.04
2017-03-23T10:19:29.793Z,9.11
2017-03-23T10:20:30.411Z,9.19
2017-03-23T10:21:31.025Z,9.11
2017-03-23T10:22:31.638Z,9.14
2017-03-23T10:23:32.260Z,9.22
2017-03-23T10:24:32.874Z,9.26
2017-03-23T10:25:33.494Z,9.32
2017-03-23T10:26:34.112Z,9.29
2017-03-23T10:27:34.728Z,9.29
2017-03-23T10:28:35.389Z,9.21
2017-03-23T10:29:36.005Z,9.23
2017-03-23T10:30:36.621Z,9.25
2017-03-23T10:31:37.274Z,9.26
2017-03-23T10:32:37.884Z,9.29
2017-03-23T10:33:38.502Z,9.36
2017-03-23T10:34:39.115Z,9.40
2017-03-23T10:35:39.731Z,9.56
2017-03-23T10:36:40.346Z,9.74
2017-03-23T10:37:40.969Z,9.86
2017-03-23T10:38:41.590Z,10.20
2017-03-23T10:39:42.205Z,10.69
2017-03-23T10:40:42.857Z,11.02
2017-03-23T10:41:43.469Z,10.97
2017-03-23T10:42:44.086Z,10.99
2017-03-23T10:43:44.733Z,10.87
2017-03-23T10:44:45.349Z,10.82
2017-03-23T10:45:45.972Z,10.86
2017-03-23T10:46:46.591Z,10.87
2017-03-23T10:47:47.206Z,11.04
2017-03-23T10:48:47.823Z,11.11
2017-03-23T10:49:48.442Z,11.54
2017-03-23T10:50:49.066Z,12.70
2017-03-23T10:51:49.693Z,14.05
2017-03-23T10:52:50.309Z,14.72
2017-03-23T10:53:50.928Z,14.88
2017-03-23T10:54:51.549Z,14.72
2017-03-23T10:55:52.173Z,14.51
2017-03-23T10:56:52.795Z,14.33
2017-03-23T10:57:53.422Z,14.36
2017-03-23T10:58:54.041Z,14.37
2017-03-23T10:59:54.670Z,14.36
2017-03-23T11:00:55.287Z,14.37
2017-03-23T11:01:55.909Z,14.29
2017-03-23T11:02:56.529Z,14.20
2017-03-23T11:03:57.151Z,14.08
2017-03-23T11:04:57.779Z,13.97
2017-03-23T11:05:58.402Z,14.25
2017-03-23T11:06:59.076Z,15.35
2017-03-23T11:07:59.703Z,16.71
2017-03-23T11:09:00.325Z,17.45
2017-03-23T11:10:00.948Z,17.67
2017-03-23T11:11:01.574Z,17.31
2017-03-23T11:12:02.200Z,17.08
2017-03-23T11:13:02.827Z,16.87
2017-03-23T11:14:03.456Z,16.64
2017-03-23T11:15:04.090Z,16.47
2017-03-23T11:16:04.707Z,16.29
2017-03-23T11:17:05.337Z,15.97
2017-03-23T11:18:05.965Z,15.76
2017-03-23T11:19:06.600Z,15.86
2017-03-23T11:20:07.224Z,16.05
2017-03-23T11:21:07.842Z,16.12
2017-03-23T11:22:08.464Z,16.02
2017-03-23T11:23:09.087Z,15.83
2017-03-23T11:24:09.712Z,15.59
2017-03-23T11:25:10.336Z,15.47
2017-03-23T11:26:10.962Z,15.31
2017-03-23T11:27:11.584Z,15.15
2017-03-23T11:28:12.206Z,14.85
2017-03-23T11:29:12.835Z,14.60
2017-03-23T11:30:13.460Z,14.26
2017-03-23T11:31:14.082Z,13.89
2017-03-23T11:32:14.705Z,13.68
2017-03-23T11:33:15.327Z,13.42
2017-03-23T11:34:15.950Z,13.27
2017-03-23T11:35:16.569Z,13.08
2017-03-23T11:36:17.192Z,13.13
2017-03-23T11:37:17.814Z,13.00
2017-03-23T11:38:18.441Z,12.91
2017-03-23T11:39:19.065Z,12.79
2017-03-23T11:40:19.688Z,12.70
2017-03-23T11:41:20.310Z,12.73
2017-03-23T11:42:20.930Z,12.80
2017-03-23T11:43:21.553Z,12.79
2017-03-23T11:44:22.178Z,12.80
2017-03-23T11:45:22.796Z,12.82
2017-03-23T11:46:23.422Z,12.97
2017-03-23T11:47:24.045Z,12.86
2017-03-23T11:48:24.663Z,12.79
2017-03-23T11:49:25.283Z,12.73
2017-03-23T11:50:25.907Z,12.85
2017-03-23T11:51:26.576Z,12.90
2017-03-23T11:52:27.245Z,13.04
2017-03-23T11:53:27.866Z,13.08
2017-03-23T11:54:28.485Z,13.04
2017-03-23T11:55:29.107Z,13.15
2017-03-23T11:56:29.726Z,13.22
2017-03-23T11:57:30.344Z,13.28
2017-03-23T11:58:30.965Z,13.09
2017-03-23T11:59:31.584Z,13.16
2017-03-23T12:00:32.204Z,13.22
2017-03-23T12:01:32.824Z,13.22
2017-03-23T12:02:33.444Z,13.16
2017-03-23T12:03:34.114Z,13.04
2017-03-23T12:04:34.787Z,13.04
2017-03-23T12:05:35.404Z,13.03
2017-03-23T12:06:36.024Z,13.05
2017-03-23T12:07:36.645Z,13.11
2017-03-23T12:08:37.263Z,13.05
2017-03-23T12:09:37.885Z,13.13
2017-03-23T12:10:38.507Z,13.03
2017-03-23T12:11:39.128Z,13.18
2017-03-23T12:12:39.754Z,13.30
2017-03-23T12:13:40.401Z,13.57
2017-03-23T12:14:40.990Z,13.75
2017-03-23T12:15:41.619Z,13.72
2017-03-23T12:16:42.234Z,13.85
2017-03-23T12:17:42.857Z,13.96
2017-03-23T12:18:43.482Z,13.95
2017-03-23T12:19:44.101Z,14.17
2017-03-23T12:20:44.753Z,14.23
2017-03-23T12:21:45.376Z,14.36
2017-03-23T12:22:45.995Z,14.33
2017-03-23T12:23:46.616Z,14.47
2017-03-23T12:24:47.244Z,14.37
2017-03-23T12:25:47.861Z,14.33
2017-03-23T12:26:48.484Z,14.23
2017-03-23T12:27:49.108Z,14.33
2017-03-23T12:28:49.783Z,14.29
2017-03-23T12:29:50.407Z,14.36
2017-03-23T12:30:51.032Z,14.43
2017-03-23T12:31:51.657Z,14.44
2017-03-23T12:32:52.278Z,14.35
2017-03-23T12:33:52.897Z,14.28
2017-03-23T12:34:53.521Z,14.32
2017-03-23T12:35:54.146Z,14.30
2017-03-23T12:36:54.796Z,14.35
2017-03-23T12:37:55.418Z,14.36
2017-03-23T12:38:56.043Z,14.36
2017-03-23T12:39:56.661Z,14.28
2017-03-23T12:40:57.284Z,14.22
2017-03-23T12:41:57.906Z,14.28
2017-03-23T12:42:58.526Z,14.18
2017-03-23T12:43:59.147Z,14.11
2017-03-23T12:44:59.767Z,14.12
2017-03-23T12:46:00.391Z,14.11
2017-03-23T12:47:01.019Z,14.11
2017-03-23T12:48:01.638Z,14.10
2017-03-23T12:49:02.261Z,14.10
2017-03-23T12:50:02.930Z,14.15
2017-03-23T12:51:03.553Z,14.25
2017-03-23T12:52:04.178Z,14.33
2017-03-23T12:53:04.799Z,14.22
2017-03-23T12:54:05.422Z,14.11
2017-03-23T12:55:06.041Z,13.90
2017-03-23T12:56:06.662Z,13.77
2017-03-23T12:57:07.281Z,13.77
2017-03-23T12:58:07.902Z,13.62
2017-03-23T12:59:08.523Z,13.63
2017-03-23T13:00:09.151Z,13.53
2017-03-23T13:01:09.771Z,13.50
2017-03-23T13:02:10.387Z,13.50
2017-03-23T13:03:11.006Z,13.49
2017-03-23T13:04:11.625Z,13.31
2017-03-23T13:05:12.247Z,13.42
2017-03-23T13:06:12.869Z,13.54
2017-03-23T13:07:13.490Z,13.68
2017-03-23T13:08:14.112Z,13.78
2017-03-23T13:09:14.730Z,13.79
2017-03-23T13:10:15.349Z,13.75
2017-03-23T13:11:15.971Z,13.92
2017-03-23T13:12:16.593Z,13.90
2017-03-23T13:13:17.212Z,13.83
2017-03-23T13:14:17.834Z,13.83
2017-03-23T13:15:18.454Z,13.83
2017-03-23T13:16:19.075Z,13.95
2017-03-23T13:17:19.696Z,14.00
2017-03-23T13:18:20.317Z,13.99
2017-03-23T13:19:20.937Z,13.90
2017-03-23T13:20:21.563Z,13.99
2017-03-23T13:21:22.181Z,13.93